Time;durP1;ratioP1;P1;durP2;ratioP2;P2;SDS_P1;SDS_P2;PMS_P1;PMS_P2;Temp;Humidity;BMP_temperature;BMP_pressure;BME280_temperature;BME280_humidity;BME280_pressure;Samples;Min_cycle;Max_cycle;Signal;HPM_P1;HPM_P2
2022/10/24 00:02:34;;;;;;;40.58;24.38;;;;;;;;;;10025913;28;20472;-78
2022/10/24 00:07:28;;;;;;;35.90;22.35;;;;;;;;;;10025614;28;20539;-77
2022/10/24 00:12:22;;;;;;;38.42;24.85;;;;;;;;;;10026691;28;20050;-77
2022/10/24 00:17:16;;;;;;;41.78;23.95;;;;;;;;;;10026966;28;20425;-78
2022/10/24 00:22:09;;;;;;;36.10;24.50;;;;;;;;;;10026213;28;20461;-76
2022/10/24 00:27:03;;;;;;;43.53;28.17;;;;;;;;;;10030188;28;20082;-74
2022/10/24 00:31:56;;;;;;;44.67;28.20;;;;;;;;;;10032031;28;20124;-73
2022/10/24 00:36:50;;;;;;;42.78;25.80;;;;;;;;;;10033902;28;20096;-75
2022/10/24 00:41:43;;;;;;;48.55;28.10;;;;;;;;;;10033458;28;20592;-75
2022/10/24 00:46:37;;;;;;;53.00;29.13;;;;;;;;;;10033909;28;20137;-75
2022/10/24 00:51:32;;;;;;;52.53;28.40;;;;;;;;;;10032015;28;20073;-75
2022/10/24 00:56:28;;;;;;;68.15;30.65;;;;;;;;;;10032478;28;20079;-76
2022/10/24 01:01:25;;;;;;;54.88;30.40;;;;;;;;;;10032090;28;20511;-76
2022/10/24 01:06:26;;;;;;;59.70;29.58;;;;;;;;;;10031999;28;20054;-76
2022/10/24 01:11:33;;;;;;;70.38;31.02;;;;;;;;;;10033362;28;20042;-77
2022/10/24 01:16:49;;;;;;;77.57;31.98;;;;;;;;;;10033378;28;20493;-77
2022/10/24 01:21:48;;;;;;;92.53;35.13;;;;;;;;;;10027471;28;20077;-76
2022/10/24 01:26:59;;;;;;;167.02;38.38;;;;;;;;;;10023565;28;20405;-74
2022/10/24 01:31:56;;;;;;;195.98;40.53;;;;;;;;;;10025988;28;20050;-76
2022/10/24 01:36:55;;;;;;;266.08;44.03;;;;;;;;;;10029610;28;20168;-76
2022/10/24 01:41:49;;;;;;;150.07;37.60;;;;;;;;;;10029385;28;20064;-77
2022/10/24 01:46:51;;;;;;;136.27;39.72;;;;;;;;;;10031709;28;20093;-76
2022/10/24 01:51:48;;;;;;;125.80;37.05;;;;;;;;;;10029018;28;20053;-76
2022/10/24 01:56:41;;;;;;;161.30;38.13;;;;;;;;;;10029667;28;20116;-76
2022/10/24 02:01:35;;;;;;;112.55;36.78;;;;;;;;;;10030956;28;20420;-75
2022/10/24 02:06:32;;;;;;;237.75;41.65;;;;;;;;;;10030027;28;20059;-74
2022/10/24 02:11:26;;;;;;;92.63;40.42;;;;;;;;;;10030030;28;20064;-74
2022/10/24 02:16:20;;;;;;;109.03;40.50;;;;;;;;;;10030041;28;20054;-73
2022/10/24 02:21:29;;;;;;;172.77;44.33;;;;;;;;;;10028161;28;20068;-74
2022/10/24 02:26:28;;;;;;;;;;;;;;;;;;10029035;28;20054;-80
2022/10/24 02:31:24;;;;;;;170.43;41.63;;;;;;;;;;10029147;28;19921;-74
2022/10/24 02:36:22;;;;;;;135.07;41.60;;;;;;;;;;10029314;28;20062;-74
2022/10/24 02:41:21;;;;;;;167.13;42.50;;;;;;;;;;10029375;28;20061;-74
2022/10/24 02:46:16;;;;;;;200.30;43.15;;;;;;;;;;10027710;28;20406;-73
2022/10/24 02:51:09;;;;;;;85.35;34.53;;;;;;;;;;10028029;28;20104;-77
2022/10/24 02:56:03;;;;;;;193.45;43.72;;;;;;;;;;10028932;28;20054;-76
2022/10/24 03:00:57;;;;;;;210.75;46.47;;;;;;;;;;10028914;28;20052;-78
2022/10/24 03:05:50;;;;;;;334.95;50.15;;;;;;;;;;10028274;28;20132;-76
2022/10/24 03:10:44;;;;;;;294.45;49.55;;;;;;;;;;10028728;28;20527;-76
2022/10/24 03:15:37;;;;;;;332.95;48.88;;;;;;;;;;10026318;28;20085;-79
2022/10/24 03:20:31;;;;;;;283.92;44.78;;;;;;;;;;10027457;28;20521;-77
2022/10/24 03:25:25;;;;;;;265.95;46.10;;;;;;;;;;10027652;28;20400;-76
2022/10/24 03:30:20;;;;;;;301.52;53.78;;;;;;;;;;10028206;28;20385;-76
2022/10/24 03:35:15;;;;;;;308.35;51.67;;;;;;;;;;10027301;28;20104;-76
2022/10/24 03:40:10;;;;;;;219.82;48.25;;;;;;;;;;10026880;28;20056;-76
2022/10/24 03:45:05;;;;;;;169.73;42.33;;;;;;;;;;10027071;28;20080;-75
2022/10/24 03:49:58;;;;;;;222.18;46.00;;;;;;;;;;10027336;28;20563;-78
2022/10/24 03:54:52;;;;;;;209.32;44.55;;;;;;;;;;10026248;28;20081;-74
2022/10/24 03:59:46;;;;;;;222.30;43.58;;;;;;;;;;10013673;28;20049;-74
2022/10/24 04:04:41;;;;;;;186.38;42.72;;;;;;;;;;10026170;28;20136;-75
2022/10/24 04:09:34;;;;;;;274.48;44.85;;;;;;;;;;10027104;28;20078;-76
2022/10/24 04:14:28;;;;;;;430.38;50.22;;;;;;;;;;10026297;28;20137;-75
2022/10/24 04:19:21;;;;;;;303.88;45.50;;;;;;;;;;10016052;28;20141;-74
2022/10/24 04:24:16;;;;;;;310.27;45.83;;;;;;;;;;10017614;28;20057;-76
2022/10/24 04:29:09;;;;;;;271.40;47.47;;;;;;;;;;10015432;28;20063;-74
2022/10/24 04:34:04;;;;;;;202.00;42.58;;;;;;;;;;10016455;28;20046;-75
2022/10/24 04:38:58;;;;;;;219.73;41.50;;;;;;;;;;10016666;28;20084;-76
2022/10/24 04:43:52;;;;;;;262.77;43.75;;;;;;;;;;10014942;28;20452;-75
2022/10/24 04:48:45;;;;;;;253.75;39.75;;;;;;;;;;10016025;28;20054;-74
2022/10/24 04:53:38;;;;;;;422.98;55.03;;;;;;;;;;10014907;28;20052;-74
2022/10/24 04:58:32;;;;;;;309.42;47.05;;;;;;;;;;10018440;28;20464;-74
2022/10/24 05:03:26;;;;;;;140.25;36.75;;;;;;;;;;10025328;28;20107;-76
2022/10/24 05:08:20;;;;;;;264.80;42.95;;;;;;;;;;10025602;28;20226;-76
2022/10/24 05:13:12;;;;;;;156.75;38.08;;;;;;;;;;10026997;28;20501;-74
2022/10/24 05:18:07;;;;;;;266.35;42.50;;;;;;;;;;10029803;28;20049;-79
2022/10/24 05:23:01;;;;;;;141.45;41.67;;;;;;;;;;10029066;28;20452;-82
2022/10/24 05:27:54;;;;;;;251.77;46.42;;;;;;;;;;10027421;28;20065;-78
2022/10/24 05:32:47;;;;;;;294.95;43.88;;;;;;;;;;10030552;28;20056;-78
2022/10/24 05:37:42;;;;;;;99.80;34.03;;;;;;;;;;10031534;28;20065;-77
2022/10/24 05:42:37;;;;;;;169.50;37.33;;;;;;;;;;10030533;28;20513;-78
2022/10/24 05:47:31;;;;;;;156.85;36.58;;;;;;;;;;10030063;28;20054;-77
2022/10/24 05:52:24;;;;;;;330.38;43.97;;;;;;;;;;10031521;28;21628;-76
2022/10/24 05:57:18;;;;;;;314.77;44.22;;;;;;;;;;10031130;28;20100;-76
2022/10/24 06:02:19;;;;;;;195.13;39.67;;;;;;;;;;10030200;28;20536;-77
2022/10/24 06:07:13;;;;;;;289.50;41.80;;;;;;;;;;10041976;28;20050;-77
2022/10/24 06:12:08;;;;;;;251.25;36.95;;;;;;;;;;10033618;28;20489;-76
2022/10/24 06:17:04;;;;;;;240.77;38.00;;;;;;;;;;10035258;28;20100;-73
2022/10/24 06:21:58;;;;;;;171.10;34.67;;;;;;;;;;10033405;28;20060;-73
2022/10/24 06:26:52;;;;;;;185.02;33.17;;;;;;;;;;10031030;28;20050;-72
2022/10/24 06:31:45;;;;;;;62.78;25.70;;;;;;;;;;10029725;28;20054;-73
2022/10/24 06:36:39;;;;;;;66.25;23.67;;;;;;;;;;10028541;28;20049;-72
2022/10/24 06:41:32;;;;;;;186.02;29.02;;;;;;;;;;10028252;28;20050;-72
2022/10/24 06:46:26;;;;;;;92.30;24.35;;;;;;;;;;10024828;28;20129;-74
2022/10/24 06:51:21;;;;;;;106.15;23.77;;;;;;;;;;10023417;28;20060;-73
2022/10/24 06:56:14;;;;;;;55.03;21.77;;;;;;;;;;10024878;28;20050;-74
2022/10/24 07:01:14;;;;;;;208.65;29.05;;;;;;;;;;10025960;28;20049;-73
2022/10/24 07:06:17;;;;;;;140.18;22.58;;;;;;;;;;10028030;28;20474;-72
2022/10/24 07:11:11;;;;;;;105.30;21.83;;;;;;;;;;10028152;28;20423;-73
2022/10/24 07:16:06;;;;;;;44.45;19.05;;;;;;;;;;10028415;28;20053;-73
2022/10/24 07:21:13;;;;;;;164.70;26.63;;;;;;;;;;10026457;28;20152;-74
2022/10/24 07:26:11;;;;;;;123.15;25.67;;;;;;;;;;10026856;28;20058;-74
2022/10/24 07:31:06;;;;;;;56.45;22.80;;;;;;;;;;10026024;28;20473;-73
2022/10/24 07:35:59;;;;;;;94.88;25.38;;;;;;;;;;10015752;28;20081;-74
2022/10/24 07:40:53;;;;;;;43.97;23.58;;;;;;;;;;10026483;28;20093;-72
2022/10/24 07:45:48;;;;;;;86.93;30.13;;;;;;;;;;10026656;28;20524;-72
2022/10/24 07:50:45;;;;;;;68.50;28.10;;;;;;;;;;10027406;28;20049;-72
2022/10/24 07:55:41;;;;;;;119.53;27.10;;;;;;;;;;10026827;28;20057;-73
2022/10/24 08:00:35;;;;;;;211.68;29.05;;;;;;;;;;10024758;28;20564;-72
2022/10/24 08:05:35;;;;;;;124.95;24.08;;;;;;;;;;10024236;28;20112;-74
2022/10/24 08:10:27;;;;;;;97.38;23.48;;;;;;;;;;10023299;28;20049;-74
2022/10/24 08:15:21;;;;;;;121.93;23.98;;;;;;;;;;10020818;28;20398;-72
2022/10/24 08:20:15;;;;;;;86.95;23.60;;;;;;;;;;10024701;28;20062;-72
2022/10/24 08:25:10;;;;;;;152.82;27.20;;;;;;;;;;10023439;28;20046;-72
2022/10/24 08:30:05;;;;;;;136.85;26.75;;;;;;;;;;10023437;28;20124;-72
2022/10/24 08:34:58;;;;;;;76.05;25.40;;;;;;;;;;10024572;28;20081;-72
2022/10/24 08:39:54;;;;;;;262.70;34.25;;;;;;;;;;10024488;28;20054;-72
2022/10/24 08:45:30;;;;;;;73.70;25.52;;;;;;;;;;10023981;28;20107;-72
2022/10/24 08:50:24;;;;;;;96.60;28.20;;;;;;;;;;10032000;28;20153;-70
2022/10/24 08:55:22;;;;;;;89.20;28.30;;;;;;;;;;10032284;28;20113;-73
2022/10/24 09:00:40;;;;;;;144.02;32.10;;;;;;;;;;10032783;28;20042;-72
2022/10/24 09:05:37;;;;;;;61.75;32.65;;;;;;;;;;10046514;28;20128;-68
2022/10/24 09:10:42;;;;;;;75.88;31.20;;;;;;;;;;10031107;28;20148;-68
2022/10/24 09:15:36;;;;;;;113.95;34.50;;;;;;;;;;10031833;28;20058;-68
2022/10/24 09:20:32;;;;;;;70.50;32.55;;;;;;;;;;10029825;28;20150;-67
2022/10/24 09:25:33;;;;;;;97.38;34.33;;;;;;;;;;10030102;28;20049;-68
2022/10/24 09:30:28;;;;;;;71.70;34.63;;;;;;;;;;10053721;28;20054;-69
2022/10/24 09:35:28;;;;;;;124.50;37.03;;;;;;;;;;10030837;28;20072;-68
2022/10/24 09:40:31;;;;;;;63.17;32.08;;;;;;;;;;10029340;28;20129;-70
2022/10/24 09:45:39;;;;;;;61.28;32.63;;;;;;;;;;10026351;28;20409;-69
2022/10/24 09:50:34;;;;;;;55.85;33.10;;;;;;;;;;10021465;28;20060;-69
2022/10/24 09:55:30;;;;;;;58.20;32.58;;;;;;;;;;10025359;28;20046;-69
2022/10/24 10:00:28;;;;;;;61.95;34.40;;;;;;;;;;10029163;28;20108;-68
2022/10/24 10:05:21;;;;;;;48.58;31.80;;;;;;;;;;10028255;28;20172;-68
2022/10/24 10:10:17;;;;;;;53.58;30.92;;;;;;;;;;10029386;28;20464;-68
2022/10/24 10:15:34;;;;;;;52.85;32.88;;;;;;;;;;10029297;28;20100;-72
2022/10/24 10:20:37;;;;;;;54.85;35.03;;;;;;;;;;10028166;28;20061;-72
2022/10/24 10:25:31;;;;;;;60.17;37.20;;;;;;;;;;10029220;28;20097;-71
2022/10/24 10:30:24;;;;;;;64.15;39.38;;;;;;;;;;10028079;28;20062;-73
2022/10/24 10:35:31;;;;;;;65.32;39.10;;;;;;;;;;10026766;28;20060;-72
2022/10/24 10:40:46;;;;;;;71.07;40.47;;;;;;;;;;10027746;28;20099;-72
2022/10/24 10:45:51;;;;;;;82.25;46.47;;;;;;;;;;10043683;28;20060;-72
2022/10/24 10:51:26;;;;;;;67.90;43.38;;;;;;;;;;10027126;28;20520;-72
2022/10/24 10:56:37;;;;;;;74.43;42.08;;;;;;;;;;9940601;28;20141;-73
2022/10/24 11:01:39;;;;;;;71.45;43.38;;;;;;;;;;10010625;28;20049;-73
2022/10/24 11:07:05;;;;;;;76.88;44.90;;;;;;;;;;10027519;28;20133;-73
2022/10/24 11:12:24;;;;;;;79.10;46.38;;;;;;;;;;10022083;28;20038;-71
2022/10/24 11:17:24;;;;;;;80.00;48.90;;;;;;;;;;10026997;28;20096;-72
2022/10/24 11:22:26;;;;;;;79.32;45.72;;;;;;;;;;10026971;28;20069;-72
2022/10/24 11:27:27;;;;;;;72.95;43.33;;;;;;;;;;10027940;28;20052;-72
2022/10/24 11:32:34;;;;;;;76.25;44.60;;;;;;;;;;10025867;28;20136;-72
2022/10/24 11:37:35;;;;;;;76.97;44.60;;;;;;;;;;10027197;28;20136;-72
2022/10/24 11:42:54;;;;;;;68.88;42.28;;;;;;;;;;10026718;28;20513;-75
2022/10/24 11:48:01;;;;;;;62.87;42.77;;;;;;;;;;10025710;28;20140;-70
2022/10/24 11:53:18;;;;;;;58.42;41.40;;;;;;;;;;10022573;28;20440;-75
2022/10/24 11:58:14;;;;;;;62.20;39.92;;;;;;;;;;10023220;28;20046;-74
2022/10/24 12:03:39;;;;;;;54.50;37.78;;;;;;;;;;10024570;28;20099;-73
2022/10/24 12:08:37;;;;;;;58.55;38.38;;;;;;;;;;10024784;28;20077;-73
2022/10/24 12:13:36;;;;;;;;;;;;;;;;;;10026341;28;20069;-73
2022/10/24 12:18:53;;;;;;;50.83;34.65;;;;;;;;;;10025634;28;20298;-73
2022/10/24 12:23:56;;;;;;;46.88;34.25;;;;;;;;;;10024147;28;20061;-73
2022/10/24 12:28:57;;;;;;;47.42;33.72;;;;;;;;;;10025015;28;20128;-73
2022/10/24 12:34:23;;;;;;;46.00;35.42;;;;;;;;;;10023175;28;20088;-73
2022/10/24 12:39:32;;;;;;;58.22;40.70;;;;;;;;;;10013486;28;20049;-73
2022/10/24 12:44:31;;;;;;;69.70;47.28;;;;;;;;;;10023831;28;20057;-73
2022/10/24 12:49:30;;;;;;;62.80;46.03;;;;;;;;;;10024794;28;20042;-72
2022/10/24 12:54:39;;;;;;;78.20;52.30;;;;;;;;;;10024242;28;20058;-73
2022/10/24 12:59:46;;;;;;;69.07;46.17;;;;;;;;;;10057057;28;20141;-73
2022/10/24 13:04:54;;;;;;;71.65;44.72;;;;;;;;;;10025319;28;20052;-74
2022/10/24 13:09:59;;;;;;;72.10;43.50;;;;;;;;;;10019101;28;20053;-73
2022/10/24 13:15:16;;;;;;;70.35;44.53;;;;;;;;;;10022653;28;20513;-73
2022/10/24 13:20:20;;;;;;;65.72;42.70;;;;;;;;;;10024445;28;20074;-69
2022/10/24 13:25:36;;;;;;;67.30;41.53;;;;;;;;;;10022306;28;20723;-75
2022/10/24 13:30:30;;;;;;;61.42;38.30;;;;;;;;;;10022361;28;20054;-73
2022/10/24 13:35:24;;;;;;;58.65;40.35;;;;;;;;;;10028701;28;20476;-73
2022/10/24 13:40:32;;;;;;;64.97;40.53;;;;;;;;;;10031693;28;20445;-73
2022/10/24 13:46:04;;;;;;;68.65;42.58;;;;;;;;;;10032266;28;20081;-74
2022/10/24 13:51:20;;;;;;;67.85;41.90;;;;;;;;;;10023833;28;20049;-73
2022/10/24 13:56:15;;;;;;;62.17;42.13;;;;;;;;;;10029331;28;20089;-73
2022/10/24 14:01:19;;;;;;;66.85;44.38;;;;;;;;;;10030148;28;20529;-73
2022/10/24 14:06:14;;;;;;;73.05;41.42;;;;;;;;;;10029964;28;20554;-73
2022/10/24 14:11:12;;;;;;;58.17;42.03;;;;;;;;;;10028585;28;20440;-73
2022/10/24 14:16:07;;;;;;;68.13;42.55;;;;;;;;;;10030086;28;20053;-74
2022/10/24 14:21:04;;;;;;;75.10;43.45;;;;;;;;;;10028542;28;20112;-73
2022/10/24 14:26:00;;;;;;;68.20;40.47;;;;;;;;;;10028874;28;20060;-74
2022/10/24 14:30:57;;;;;;;65.70;40.00;;;;;;;;;;10024303;28;20104;-74
2022/10/24 14:35:51;;;;;;;55.35;38.35;;;;;;;;;;10027759;28;20042;-74
2022/10/24 14:40:50;;;;;;;53.58;36.65;;;;;;;;;;10025642;28;20068;-75
2022/10/24 14:46:12;;;;;;;51.22;34.58;;;;;;;;;;10027897;28;20054;-75
2022/10/24 14:51:13;;;;;;;53.03;36.05;;;;;;;;;;10026416;28;20394;-75
2022/10/24 14:56:23;;;;;;;56.95;36.08;;;;;;;;;;10024527;28;20054;-75
2022/10/24 15:01:17;;;;;;;55.50;35.92;;;;;;;;;;10019848;28;20077;-74
2022/10/24 15:06:17;;;;;;;51.28;34.90;;;;;;;;;;10017781;28;20145;-75
2022/10/24 15:11:31;;;;;;;51.83;36.25;;;;;;;;;;10027529;28;20057;-74
2022/10/24 15:16:36;;;;;;;19.75;10.35;;;;;;;;;;10028179;28;20045;-74
2022/10/24 15:21:37;;;;;;;18.05;6.90;;;;;;;;;;10030661;28;20084;-74
2022/10/24 15:26:39;;;;;;;15.63;6.32;;;;;;;;;;10020377;28;20181;-74
2022/10/24 15:31:36;;;;;;;19.33;7.18;;;;;;;;;;10036053;28;20500;-73
2022/10/24 15:36:33;;;;;;;20.25;9.95;;;;;;;;;;10029417;28;20053;-76
2022/10/24 15:41:26;;;;;;;20.50;9.98;;;;;;;;;;10013827;28;20041;-76
2022/10/24 15:46:23;;;;;;;20.63;12.95;;;;;;;;;;10017072;28;20046;-75
2022/10/24 15:51:36;;;;;;;28.08;15.93;;;;;;;;;;10030953;28;20455;-76
2022/10/24 15:56:29;;;;;;;48.75;24.83;;;;;;;;;;10025026;28;20060;-77
2022/10/24 16:01:30;;;;;;;48.22;33.92;;;;;;;;;;10025768;28;20580;-78
2022/10/24 16:06:33;;;;;;;59.35;37.80;;;;;;;;;;10019567;28;20108;-77
2022/10/24 16:11:27;;;;;;;65.90;38.67;;;;;;;;;;10019677;28;20481;-76
2022/10/24 16:16:25;;;;;;;66.87;36.83;;;;;;;;;;10021338;28;20076;-77
2022/10/24 16:21:20;;;;;;;55.70;38.08;;;;;;;;;;10022633;28;20341;-77
2022/10/24 16:26:14;;;;;;;57.17;35.72;;;;;;;;;;10024383;28;20052;-77
2022/10/24 16:31:08;;;;;;;53.92;36.60;;;;;;;;;;10022900;28;20112;-77
2022/10/24 16:36:03;;;;;;;67.72;40.85;;;;;;;;;;10024956;28;20061;-76
2022/10/24 16:40:57;;;;;;;64.25;39.67;;;;;;;;;;10024315;28;20080;-76
2022/10/24 16:45:58;;;;;;;60.75;40.53;;;;;;;;;;10014968;28;20053;-77
2022/10/24 16:50:52;;;;;;;54.35;38.15;;;;;;;;;;10016665;28;20082;-78
2022/10/24 16:56:08;;;;;;;61.35;41.53;;;;;;;;;;10024302;28;20056;-76
2022/10/24 17:01:04;;;;;;;59.28;40.13;;;;;;;;;;10021339;28;20082;-78
2022/10/24 17:05:57;;;;;;;74.22;40.83;;;;;;;;;;10023740;28;20058;-81
2022/10/24 17:10:54;;;;;;;72.15;41.17;;;;;;;;;;10029290;28;20058;-74
2022/10/24 17:15:50;;;;;;;62.05;38.28;;;;;;;;;;10031888;28;20065;-77
2022/10/24 17:20:44;;;;;;;61.05;37.30;;;;;;;;;;10030696;28;20046;-80
2022/10/24 17:25:39;;;;;;;57.17;36.13;;;;;;;;;;10031721;28;20050;-77
2022/10/24 17:30:32;;;;;;;52.97;36.63;;;;;;;;;;10030528;28;20508;-82
2022/10/24 17:35:26;;;;;;;61.40;36.25;;;;;;;;;;10031339;28;20088;-78
2022/10/24 17:40:23;;;;;;;68.38;41.90;;;;;;;;;;10030614;28;20073;-77
2022/10/24 17:45:20;;;;;;;62.00;38.67;;;;;;;;;;10030137;28;20088;-78
2022/10/24 17:50:16;;;;;;;59.65;36.85;;;;;;;;;;10028215;28;20058;-78
2022/10/24 17:55:30;;;;;;;64.07;37.90;;;;;;;;;;10035022;28;20056;-77
2022/10/24 18:00:38;;;;;;;58.40;37.22;;;;;;;;;;10014355;28;20042;-77
2022/10/24 18:05:36;;;;;;;58.38;37.92;;;;;;;;;;10026579;28;20053;-77
2022/10/24 18:10:31;;;;;;;56.15;36.58;;;;;;;;;;10032773;28;20041;-74
2022/10/24 18:15:25;;;;;;;57.63;38.88;;;;;;;;;;10018483;28;20050;-75
2022/10/24 18:20:19;;;;;;;63.63;38.95;;;;;;;;;;10014175;28;20083;-75
2022/10/24 18:25:14;;;;;;;61.85;38.92;;;;;;;;;;10022764;28;20112;-75
2022/10/24 18:30:14;;;;;;;51.78;35.55;;;;;;;;;;10015261;28;20059;-74
2022/10/24 18:35:09;;;;;;;53.80;32.75;;;;;;;;;;10011881;28;20061;-77
2022/10/24 18:40:08;;;;;;;59.85;31.95;;;;;;;;;;10024099;28;20054;-73
2022/10/24 18:45:05;;;;;;;49.70;33.75;;;;;;;;;;10025778;28;20060;-76
2022/10/24 18:50:00;;;;;;;55.97;34.63;;;;;;;;;;10023336;28;20065;-75
2022/10/24 18:55:09;;;;;;;67.93;37.63;;;;;;;;;;10020310;28;20133;-73
2022/10/24 19:00:07;;;;;;;50.10;34.10;;;;;;;;;;10015526;28;20129;-82
2022/10/24 19:05:47;;;;;;;50.50;33.15;;;;;;;;;;10016963;28;20061;-74
2022/10/24 19:10:47;;;;;;;44.92;30.42;;;;;;;;;;10013405;28;20504;-74
2022/10/24 19:15:44;;;;;;;65.70;32.10;;;;;;;;;;10019989;28;20100;-71
2022/10/24 19:20:39;;;;;;;43.47;27.60;;;;;;;;;;10019461;28;20052;-71
2022/10/24 19:25:33;;;;;;;43.53;25.17;;;;;;;;;;10028109;28;20053;-72
2022/10/24 19:30:27;;;;;;;40.75;22.40;;;;;;;;;;10027226;28;20050;-76
2022/10/24 19:35:21;;;;;;;47.55;27.38;;;;;;;;;;10027265;28;20058;-71
2022/10/24 19:40:15;;;;;;;25.48;13.68;;;;;;;;;;10035842;28;20100;-71
2022/10/24 19:45:10;;;;;;;25.77;11.45;;;;;;;;;;10028389;28;20053;-71
2022/10/24 19:50:06;;;;;;;19.85;10.02;;;;;;;;;;10025408;28;20064;-71
2022/10/24 19:54:59;;;;;;;19.30;9.70;;;;;;;;;;10027523;28;20547;-74
2022/10/24 19:59:52;;;;;;;24.63;11.85;;;;;;;;;;10023657;28;20046;-75
2022/10/24 20:04:46;;;;;;;23.40;15.48;;;;;;;;;;10027143;28;20054;-76
2022/10/24 20:09:40;;;;;;;26.77;16.70;;;;;;;;;;10025763;28;20069;-76
2022/10/24 20:14:35;;;;;;;19.45;11.55;;;;;;;;;;10041194;28;20049;-76
2022/10/24 20:19:28;;;;;;;27.65;16.73;;;;;;;;;;10025849;28;20054;-76
2022/10/24 20:24:22;;;;;;;31.08;21.27;;;;;;;;;;10033384;28;20054;-75
2022/10/24 20:29:15;;;;;;;31.92;22.08;;;;;;;;;;10033874;28;20077;-75
2022/10/24 20:34:09;;;;;;;23.27;14.43;;;;;;;;;;10029378;28;20559;-76
2022/10/24 20:39:05;;;;;;;25.23;10.40;;;;;;;;;;10026084;28;20145;-77
2022/10/24 20:43:59;;;;;;;27.88;15.88;;;;;;;;;;10029636;28;20064;-77
2022/10/24 20:48:53;;;;;;;21.85;14.00;;;;;;;;;;10034110;28;20037;-77
2022/10/24 20:53:47;;;;;;;18.15;9.82;;;;;;;;;;10033696;28;20092;-77
2022/10/24 20:58:42;;;;;;;17.58;8.23;;;;;;;;;;10034724;28;20050;-77
2022/10/24 21:03:37;;;;;;;17.00;6.82;;;;;;;;;;10033650;28;20121;-77
2022/10/24 21:08:30;;;;;;;19.23;8.07;;;;;;;;;;10033522;28;20071;-77
2022/10/24 21:13:24;;;;;;;12.25;7.03;;;;;;;;;;10033492;28;20046;-77
2022/10/24 21:18:19;;;;;;;20.70;6.85;;;;;;;;;;10033341;28;20049;-77
2022/10/24 21:23:13;;;;;;;17.42;6.28;;;;;;;;;;10032172;28;20160;-77
2022/10/24 21:28:07;;;;;;;12.93;6.13;;;;;;;;;;10032233;28;20523;-77
2022/10/24 21:33:03;;;;;;;18.17;8.63;;;;;;;;;;10031539;28;20050;-79
2022/10/24 21:38:00;;;;;;;17.42;7.03;;;;;;;;;;10031673;28;20096;-76
2022/10/24 21:42:54;;;;;;;21.92;6.97;;;;;;;;;;10031853;28;20092;-77
2022/10/24 21:47:48;;;;;;;20.60;6.15;;;;;;;;;;10028369;28;20089;-73
2022/10/24 21:52:43;;;;;;;16.60;7.47;;;;;;;;;;10025598;28;20080;-73
2022/10/24 21:57:37;;;;;;;25.67;7.55;;;;;;;;;;10025133;28;20057;-74
2022/10/24 22:02:31;;;;;;;19.85;6.07;;;;;;;;;;10022245;28;20048;-74
2022/10/24 22:07:26;;;;;;;18.33;7.13;;;;;;;;;;10023845;28;20052;-73
2022/10/24 22:12:20;;;;;;;17.75;7.85;;;;;;;;;;10017284;28;20049;-73
2022/10/24 22:17:13;;;;;;;16.88;6.95;;;;;;;;;;10022047;28;20465;-73
2022/10/24 22:22:08;;;;;;;24.05;6.75;;;;;;;;;;10022080;28;20066;-73
2022/10/24 22:27:02;;;;;;;22.60;6.97;;;;;;;;;;10026400;28;20046;-73
2022/10/24 22:31:56;;;;;;;21.15;7.78;;;;;;;;;;10024057;28;20068;-73
2022/10/24 22:37:15;;;;;;;28.80;9.77;;;;;;;;;;10024188;28;20057;-73
2022/10/24 22:42:09;;;;;;;18.40;8.20;;;;;;;;;;10020182;28;20054;-72
2022/10/24 22:47:40;;;;;;;36.10;10.75;;;;;;;;;;10023102;28;20057;-73
2022/10/24 22:52:36;;;;;;;21.40;8.63;;;;;;;;;;10024249;28;20547;-72
2022/10/24 22:57:30;;;;;;;22.83;10.35;;;;;;;;;;10025238;28;20104;-73
2022/10/24 23:02:29;;;;;;;19.20;9.38;;;;;;;;;;10021486;28;20057;-73
2022/10/24 23:08:10;;;;;;;23.10;8.55;;;;;;;;;;10017903;28;20054;-73
2022/10/24 23:13:06;;;;;;;25.65;7.90;;;;;;;;;;10010089;28;20572;-72
2022/10/24 23:18:01;;;;;;;28.90;9.13;;;;;;;;;;10017853;28;20080;-72
2022/10/24 23:22:56;;;;;;;26.35;7.95;;;;;;;;;;10018416;28;20058;-72
2022/10/24 23:28:15;;;;;;;20.20;8.77;;;;;;;;;;10020672;28;20054;-72
2022/10/24 23:33:17;;;;;;;15.73;8.13;;;;;;;;;;10022225;28;20046;-73
2022/10/24 23:38:12;;;;;;;18.13;8.30;;;;;;;;;;10020661;28;20057;-73
2022/10/24 23:43:15;;;;;;;17.75;7.45;;;;;;;;;;10027142;28;20042;-72
2022/10/24 23:48:23;;;;;;;31.42;9.05;;;;;;;;;;10027380;28;20140;-73
2022/10/24 23:53:41;;;;;;;18.90;8.15;;;;;;;;;;10026775;28;20054;-72
2022/10/24 23:58:35;;;;;;;21.80;7.55;;;;;;;;;;10026485;28;20083;-72
